Time;durP1;ratioP1;P1;durP2;ratioP2;P2;SDS_P1;SDS_P2;PMS_P1;PMS_P2;Temp;Humidity;BMP_temperature;BMP_pressure;BME280_temperature;BME280_humidity;BME280_pressure;Samples;Min_cycle;Max_cycle;Signal;HPM_P1;HPM_P2
2022/04/29 00:02:27;;;;;;;15.55;9.50;;;;;;;;;;10512424;28;20096;-75
2022/04/29 00:07:27;;;;;;;15.40;9.40;;;;;;;;;;10516286;28;20384;-71
2022/04/29 00:12:27;;;;;;;16.92;9.82;;;;;;;;;;10515931;28;20265;-72
2022/04/29 00:17:27;;;;;;;17.27;10.75;;;;;;;;;;10515703;28;20143;-72
2022/04/29 00:22:28;;;;;;;17.02;10.48;;;;;;;;;;10515214;28;20024;-72
2022/04/29 00:27:28;;;;;;;18.02;11.02;;;;;;;;;;10515749;28;20024;-75
2022/04/29 00:32:28;;;;;;;14.73;8.95;;;;;;;;;;10515782;28;20020;-71
2022/04/29 00:37:30;;;;;;;19.75;10.50;;;;;;;;;;10516563;28;20016;-72
2022/04/29 00:42:30;;;;;;;17.15;11.18;;;;;;;;;;10533024;28;20024;-76
2022/04/29 00:47:30;;;;;;;16.70;9.13;;;;;;;;;;10513260;28;20042;-71
2022/04/29 00:52:32;;;;;;;21.90;10.40;;;;;;;;;;10532819;28;20020;-72
2022/04/29 00:57:57;;;;;;;16.38;10.02;;;;;;;;;;10514552;28;20028;-69
2022/04/29 01:02:59;;;;;;;16.92;9.80;;;;;;;;;;10514193;28;20123;-75
2022/04/29 01:08:00;;;;;;;18.38;11.18;;;;;;;;;;10513830;28;20450;-71
2022/04/29 01:13:02;;;;;;;14.70;9.20;;;;;;;;;;10496085;28;20023;-72
2022/04/29 01:18:04;;;;;;;20.15;11.20;;;;;;;;;;10513419;28;20115;-73
2022/04/29 01:23:08;;;;;;;16.58;9.38;;;;;;;;;;10513246;28;20016;-77
2022/04/29 01:28:08;;;;;;;18.33;9.68;;;;;;;;;;10531375;28;20023;-77
2022/04/29 01:33:09;;;;;;;20.63;10.57;;;;;;;;;;10512798;28;20399;-75
2022/04/29 01:38:09;;;;;;;17.17;9.37;;;;;;;;;;10512627;28;20586;-73
2022/04/29 01:43:09;;;;;;;20.08;10.38;;;;;;;;;;10512363;28;20043;-70
2022/04/29 01:48:10;;;;;;;17.20;10.07;;;;;;;;;;10511669;28;20044;-76
2022/04/29 01:53:10;;;;;;;20.13;10.63;;;;;;;;;;10530317;28;20059;-70
2022/04/29 01:58:10;;;;;;;24.48;11.40;;;;;;;;;;10511972;28;20024;-72
2022/04/29 02:03:10;;;;;;;18.13;10.10;;;;;;;;;;10511823;28;20028;-73
2022/04/29 02:08:11;;;;;;;19.27;9.90;;;;;;;;;;10511443;28;20127;-73
2022/04/29 02:13:11;;;;;;;17.42;10.20;;;;;;;;;;10511087;28;20073;-71
2022/04/29 02:18:11;;;;;;;18.00;9.25;;;;;;;;;;10510927;28;20032;-71
2022/04/29 02:23:12;;;;;;;23.65;9.80;;;;;;;;;;10510063;28;20031;-74
2022/04/29 02:28:12;;;;;;;16.88;9.88;;;;;;;;;;10506550;28;20118;-74
2022/04/29 02:33:12;;;;;;;17.43;10.07;;;;;;;;;;10507585;28;20020;-71
2022/04/29 02:38:13;;;;;;;21.92;11.10;;;;;;;;;;10510342;28;20106;-72
2022/04/29 02:43:13;;;;;;;18.50;11.23;;;;;;;;;;10510224;28;20058;-72
2022/04/29 02:48:15;;;;;;;20.10;10.70;;;;;;;;;;10527766;28;20534;-72
2022/04/29 02:53:15;;;;;;;18.08;10.80;;;;;;;;;;10527888;28;20036;-73
2022/04/29 02:58:15;;;;;;;18.98;10.57;;;;;;;;;;10510097;28;20411;-75
2022/04/29 03:03:15;;;;;;;21.93;11.90;;;;;;;;;;10528900;28;20431;-73
2022/04/29 03:08:16;;;;;;;16.67;10.50;;;;;;;;;;10488946;28;20032;-73
2022/04/29 03:13:16;;;;;;;16.48;9.18;;;;;;;;;;10451690;28;20036;-73
2022/04/29 03:18:22;;;;;;;16.50;10.47;;;;;;;;;;10468374;28;20033;-72
2022/04/29 03:23:23;;;;;;;18.15;10.05;;;;;;;;;;10518585;28;20031;-75
2022/04/29 03:28:23;;;;;;;24.02;11.27;;;;;;;;;;10509673;28;20042;-75
2022/04/29 03:33:24;;;;;;;18.23;10.23;;;;;;;;;;10509657;28;20023;-72
2022/04/29 03:38:24;;;;;;;16.40;9.77;;;;;;;;;;10509201;28;20032;-73
2022/04/29 03:43:25;;;;;;;19.45;9.80;;;;;;;;;;10527042;28;20088;-77
2022/04/29 03:48:25;;;;;;;20.23;10.33;;;;;;;;;;10508257;28;20043;-76
2022/04/29 03:53:25;;;;;;;18.38;10.50;;;;;;;;;;10509664;28;20270;-75
2022/04/29 03:58:26;;;;;;;19.83;11.55;;;;;;;;;;10509723;28;20028;-71
2022/04/29 04:03:26;;;;;;;23.38;12.80;;;;;;;;;;10508218;28;20032;-77
2022/04/29 04:08:26;;;;;;;18.92;10.93;;;;;;;;;;10525680;28;20127;-77
2022/04/29 04:13:26;;;;;;;21.63;10.30;;;;;;;;;;10525414;28;20062;-71
2022/04/29 04:18:27;;;;;;;16.77;9.68;;;;;;;;;;10507144;28;20487;-72
2022/04/29 04:23:27;;;;;;;25.10;12.43;;;;;;;;;;10494972;28;20460;-77
2022/04/29 04:28:28;;;;;;;28.88;10.30;;;;;;;;;;10492416;28;20032;-74
2022/04/29 04:33:28;;;;;;;20.27;10.05;;;;;;;;;;10511283;28;20028;-72
2022/04/29 04:38:29;;;;;;;19.25;10.93;;;;;;;;;;10489151;28;20514;-76
2022/04/29 04:43:29;;;;;;;19.90;9.85;;;;;;;;;;10550965;28;20112;-73
2022/04/29 04:48:29;;;;;;;23.60;11.47;;;;;;;;;;10523828;28;20439;-76
2022/04/29 04:53:30;;;;;;;24.48;11.18;;;;;;;;;;10533150;28;20020;-71
2022/04/29 04:58:32;;;;;;;17.40;10.63;;;;;;;;;;10514963;28;20067;-72
2022/04/29 05:03:32;;;;;;;25.08;12.73;;;;;;;;;;10533688;28;20528;-70
2022/04/29 05:08:33;;;;;;;29.23;13.70;;;;;;;;;;10465224;28;20104;-72
2022/04/29 05:13:33;;;;;;;24.58;11.77;;;;;;;;;;10490549;28;20028;-72
2022/04/29 05:18:33;;;;;;;25.23;13.05;;;;;;;;;;10492130;28;20024;-72
2022/04/29 05:23:36;;;;;;;30.88;13.00;;;;;;;;;;10571372;28;20023;-73
2022/04/29 05:28:36;;;;;;;22.55;13.20;;;;;;;;;;10552779;28;20534;-74
2022/04/29 05:33:38;;;;;;;27.17;13.73;;;;;;;;;;10512211;28;20017;-75
2022/04/29 05:43:57;;;;;;;26.35;11.95;;;;;;;;;;10489921;28;20017;-72
2022/04/29 05:48:57;;;;;;;25.17;12.75;;;;;;;;;;10500561;28;20040;-78
2022/04/29 05:54:00;;;;;;;23.98;12.73;;;;;;;;;;10471394;28;20019;-78
2022/04/29 05:59:00;;;;;;;23.33;13.02;;;;;;;;;;10470382;28;20542;-78
2022/04/29 06:04:00;;;;;;;26.73;14.10;;;;;;;;;;10488473;28;20024;-75
2022/04/29 06:09:01;;;;;;;19.45;11.10;;;;;;;;;;10471514;28;20024;-76
2022/04/29 06:14:01;;;;;;;24.55;13.93;;;;;;;;;;10480919;28;20022;-74
2022/04/29 06:19:01;;;;;;;26.20;12.65;;;;;;;;;;10529370;28;20410;-74
2022/04/29 06:24:02;;;;;;;22.27;10.85;;;;;;;;;;10512347;28;20024;-72
2022/04/29 06:29:02;;;;;;;20.23;12.88;;;;;;;;;;10527545;28;20113;-74
2022/04/29 06:34:03;;;;;;;21.38;10.82;;;;;;;;;;10495041;28;20016;-73
2022/04/29 06:39:04;;;;;;;22.17;10.90;;;;;;;;;;10527940;28;20036;-71
2022/04/29 06:44:04;;;;;;;18.33;10.63;;;;;;;;;;10528125;28;20028;-77
2022/04/29 06:49:04;;;;;;;26.63;11.90;;;;;;;;;;10510861;28;20483;-76
2022/04/29 06:54:05;;;;;;;18.92;11.27;;;;;;;;;;10529547;28;20028;-75
2022/04/29 06:59:05;;;;;;;17.53;10.77;;;;;;;;;;10510938;28;20031;-74
2022/04/29 07:04:05;;;;;;;16.83;10.35;;;;;;;;;;10510462;28;20274;-74
2022/04/29 07:09:06;;;;;;;20.83;10.25;;;;;;;;;;10528154;28;20275;-74
2022/04/29 07:14:07;;;;;;;15.60;10.07;;;;;;;;;;10528701;28;20135;-77
2022/04/29 07:19:07;;;;;;;21.98;12.15;;;;;;;;;;10542804;28;20270;-78
2022/04/29 07:24:08;;;;;;;19.65;10.88;;;;;;;;;;10526520;28;20550;-74
2022/04/29 07:29:08;;;;;;;18.02;9.65;;;;;;;;;;10526371;28;20411;-78
2022/04/29 07:34:08;;;;;;;14.30;9.43;;;;;;;;;;10526321;28;20419;-77
2022/04/29 07:44:28;;;;;;;21.00;10.10;;;;;;;;;;10527168;28;20020;-75
2022/04/29 07:49:28;;;;;;;15.83;9.17;;;;;;;;;;10527330;28;20040;-75
2022/04/29 07:54:28;;;;;;;18.33;10.95;;;;;;;;;;10508811;28;20042;-76
2022/04/29 07:59:29;;;;;;;19.02;9.07;;;;;;;;;;10508484;28;20038;-74
2022/04/29 08:04:29;;;;;;;15.10;9.15;;;;;;;;;;10525327;28;20174;-72
2022/04/29 08:09:29;;;;;;;13.43;8.30;;;;;;;;;;10525424;28;20487;-74
2022/04/29 08:14:31;;;;;;;16.70;7.10;;;;;;;;;;10526288;28;20457;-76
2022/04/29 08:19:31;;;;;;;15.63;6.00;;;;;;;;;;10524696;28;20024;-73
2022/04/29 08:24:32;;;;;;;13.05;7.80;;;;;;;;;;10532404;28;20107;-73
2022/04/29 08:29:32;;;;;;;15.77;8.60;;;;;;;;;;10516694;28;20093;-81
2022/04/29 08:34:33;;;;;;;11.40;7.50;;;;;;;;;;10532756;28;20022;-74
2022/04/29 08:39:34;;;;;;;15.70;7.85;;;;;;;;;;10516033;28;20035;-73
2022/04/29 08:44:34;;;;;;;16.90;8.67;;;;;;;;;;10515337;28;20409;-77
2022/04/29 08:49:35;;;;;;;16.52;9.25;;;;;;;;;;10532339;28;20036;-78
2022/04/29 09:00:04;;;;;;;15.88;8.20;;;;;;;;;;10533010;28;20024;-78
2022/04/29 09:05:06;;;;;;;14.98;8.57;;;;;;;;;;10498738;28;20028;-76
2022/04/29 09:10:07;;;;;;;11.32;7.00;;;;;;;;;;10531817;28;20019;-74
2022/04/29 09:15:11;;;;;;;12.27;7.85;;;;;;;;;;10514736;28;20024;-74
2022/04/29 09:20:22;;;;;;;13.57;8.02;;;;;;;;;;10532981;28;20106;-71
2022/04/29 09:25:23;;;;;;;8.68;6.78;;;;;;;;;;10514016;28;20024;-77
2022/04/29 09:30:35;;;;;;;14.48;7.78;;;;;;;;;;10530877;28;20027;-78
2022/04/29 09:35:37;;;;;;;11.23;7.07;;;;;;;;;;10530594;28;20020;-78
2022/04/29 09:40:37;;;;;;;12.07;7.05;;;;;;;;;;10513651;28;20024;-75
2022/04/29 09:45:38;;;;;;;12.07;6.20;;;;;;;;;;10513464;28;20444;-73
2022/04/29 09:50:50;;;;;;;13.75;7.93;;;;;;;;;;10531738;28;20024;-81
2022/04/29 09:56:09;;;;;;;13.00;5.88;;;;;;;;;;10529820;28;20404;-73
2022/04/29 10:01:10;;;;;;;11.13;7.28;;;;;;;;;;10512682;28;20047;-77
2022/04/29 10:06:11;;;;;;;12.07;6.80;;;;;;;;;;10529252;28;20036;-79
2022/04/29 10:11:12;;;;;;;11.05;7.20;;;;;;;;;;10511830;28;20027;-77
2022/04/29 10:16:13;;;;;;;13.77;6.88;;;;;;;;;;10512258;28;20032;-74
2022/04/29 10:21:16;;;;;;;11.55;6.47;;;;;;;;;;10496325;28;20039;-72
2022/04/29 10:26:21;;;;;;;9.70;6.05;;;;;;;;;;10528617;28;20047;-72
2022/04/29 10:31:22;;;;;;;8.38;5.93;;;;;;;;;;10511485;28;20106;-73
2022/04/29 10:36:26;;;;;;;8.93;5.93;;;;;;;;;;10510807;28;20030;-73
2022/04/29 10:41:26;;;;;;;9.65;5.65;;;;;;;;;;10495039;28;20052;-71
2022/04/29 10:46:36;;;;;;;9.80;6.05;;;;;;;;;;10527200;28;20130;-75
2022/04/29 10:51:37;;;;;;;10.85;6.80;;;;;;;;;;10527706;28;20046;-72
2022/04/29 10:56:37;;;;;;;8.43;5.88;;;;;;;;;;10526993;28;20031;-74
2022/04/29 11:01:38;;;;;;;9.95;5.85;;;;;;;;;;10510116;28;20020;-73
2022/04/29 11:06:46;;;;;;;11.85;6.40;;;;;;;;;;10528669;28;20032;-73
2022/04/29 11:11:47;;;;;;;10.52;6.18;;;;;;;;;;10528978;28;20027;-77
2022/04/29 11:16:52;;;;;;;7.85;5.57;;;;;;;;;;10511195;28;20491;-75
2022/04/29 11:27:13;;;;;;;9.98;6.88;;;;;;;;;;10527682;28;20475;-74
2022/04/29 11:32:22;;;;;;;10.90;6.38;;;;;;;;;;10509051;28;20020;-75
2022/04/29 11:37:23;;;;;;;9.30;6.25;;;;;;;;;;10509555;28;20490;-73
2022/04/29 11:42:23;;;;;;;10.93;6.57;;;;;;;;;;10525948;28;20027;-77
2022/04/29 11:47:24;;;;;;;9.57;6.63;;;;;;;;;;10526612;28;20044;-76
2022/04/29 11:52:31;;;;;;;8.70;6.20;;;;;;;;;;10509053;28;20097;-77
2022/04/29 11:57:33;;;;;;;13.50;6.90;;;;;;;;;;10511897;28;20345;-75
2022/04/29 12:02:33;;;;;;;9.70;6.45;;;;;;;;;;10535436;28;20039;-73
2022/04/29 12:07:41;;;;;;;11.30;6.03;;;;;;;;;;10517861;28;20618;-75
2022/04/29 12:12:42;;;;;;;9.48;6.07;;;;;;;;;;10516737;28;20030;-78
2022/04/29 12:17:42;;;;;;;11.27;6.43;;;;;;;;;;10517042;28;20024;-71
2022/04/29 12:22:42;;;;;;;11.98;6.25;;;;;;;;;;10535112;28;20016;-76
2022/04/29 12:27:43;;;;;;;11.57;6.78;;;;;;;;;;10533566;28;20115;-74
2022/04/29 12:38:02;;;;;;;12.30;6.55;;;;;;;;;;10546408;28;20032;-73
2022/04/29 12:43:10;;;;;;;10.60;5.63;;;;;;;;;;10533722;28;20032;-75
2022/04/29 12:48:14;;;;;;;10.63;6.07;;;;;;;;;;10498855;28;20047;-76
2022/04/29 12:53:16;;;;;;;14.25;6.75;;;;;;;;;;10515622;28;20016;-72
2022/04/29 12:58:17;;;;;;;15.00;6.82;;;;;;;;;;10516545;28;20028;-75
2022/04/29 13:03:27;;;;;;;8.73;5.88;;;;;;;;;;10508998;28;20086;-74
2022/04/29 13:08:28;;;;;;;12.43;7.00;;;;;;;;;;10481665;28;20492;-73
2022/04/29 13:13:31;;;;;;;11.75;6.43;;;;;;;;;;10489552;28;20104;-76
2022/04/29 13:18:32;;;;;;;11.23;5.90;;;;;;;;;;10489703;28;20043;-70
2022/04/29 13:23:33;;;;;;;9.82;5.90;;;;;;;;;;10476221;28;20028;-73
2022/04/29 13:28:34;;;;;;;11.70;6.90;;;;;;;;;;10472837;28;20054;-71
2022/04/29 13:33:34;;;;;;;12.35;6.93;;;;;;;;;;10489302;28;20408;-69
2022/04/29 13:38:36;;;;;;;12.73;7.20;;;;;;;;;;10524219;28;20039;-73
2022/04/29 13:43:36;;;;;;;10.15;7.25;;;;;;;;;;10513710;28;20024;-77
2022/04/29 13:48:37;;;;;;;14.52;7.40;;;;;;;;;;10523933;28;20035;-72
2022/04/29 13:53:38;;;;;;;10.53;7.00;;;;;;;;;;10518151;28;20035;-76
2022/04/29 13:58:38;;;;;;;11.15;6.93;;;;;;;;;;10532608;28;20777;-77
2022/04/29 14:03:39;;;;;;;10.87;7.07;;;;;;;;;;10551379;28;20024;-76
2022/04/29 14:08:40;;;;;;;11.55;6.82;;;;;;;;;;10526727;28;20510;-70
2022/04/29 14:13:40;;;;;;;10.32;6.47;;;;;;;;;;10536416;28;20023;-70
2022/04/29 14:18:40;;;;;;;25.42;9.55;;;;;;;;;;10530949;28;20147;-71
2022/04/29 14:23:41;;;;;;;12.35;8.15;;;;;;;;;;10548670;28;20024;-72
2022/04/29 14:28:41;;;;;;;15.98;8.05;;;;;;;;;;10535613;28;20517;-72
2022/04/29 14:33:42;;;;;;;19.98;8.18;;;;;;;;;;10534523;28;20513;-71
2022/04/29 14:38:43;;;;;;;16.23;7.33;;;;;;;;;;10528710;28;20040;-72
2022/04/29 14:43:43;;;;;;;13.90;8.80;;;;;;;;;;10537980;28;20869;-71
2022/04/29 14:48:43;;;;;;;15.70;8.13;;;;;;;;;;10470169;28;20132;-74
2022/04/29 14:53:44;;;;;;;16.83;8.67;;;;;;;;;;10494984;28;20506;-71
2022/04/29 14:58:44;;;;;;;14.43;8.47;;;;;;;;;;10526945;28;20020;-72
2022/04/29 15:03:45;;;;;;;13.27;8.15;;;;;;;;;;10484886;28;20464;-72
2022/04/29 15:08:45;;;;;;;16.52;8.52;;;;;;;;;;10500416;28;20032;-73
2022/04/29 15:19:04;;;;;;;15.95;8.45;;;;;;;;;;10485905;28;20143;-72
2022/04/29 15:24:05;;;;;;;13.03;7.60;;;;;;;;;;10485085;28;20038;-73
2022/04/29 15:29:06;;;;;;;15.30;9.75;;;;;;;;;;10495029;28;20048;-73
2022/04/29 15:34:06;;;;;;;16.73;9.90;;;;;;;;;;10525755;28;20081;-74
2022/04/29 15:39:07;;;;;;;15.07;9.50;;;;;;;;;;10525420;28;20034;-76
2022/04/29 15:44:07;;;;;;;15.73;8.50;;;;;;;;;;10525976;28;20032;-75
2022/04/29 15:49:08;;;;;;;21.57;11.17;;;;;;;;;;10490194;28;20036;-78
2022/04/29 15:54:08;;;;;;;15.63;9.63;;;;;;;;;;10483869;28;20024;-75
2022/04/29 15:59:08;;;;;;;16.15;7.65;;;;;;;;;;10506120;28;20020;-74
2022/04/29 16:04:11;;;;;;;23.70;10.63;;;;;;;;;;10525175;28;20145;-77
2022/04/29 16:09:11;;;;;;;19.38;10.52;;;;;;;;;;10525439;28;20028;-72
2022/04/29 16:14:11;;;;;;;27.30;13.23;;;;;;;;;;10526866;28;20630;-73
2022/04/29 16:29:49;;;;;;;13.93;9.05;;;;;;;;;;10526046;28;20266;-73
2022/04/29 16:34:50;;;;;;;20.50;11.52;;;;;;;;;;10508568;28;20665;-73
2022/04/29 16:39:50;;;;;;;19.65;10.60;;;;;;;;;;10525295;28;20047;-73
2022/04/29 16:44:51;;;;;;;16.60;8.77;;;;;;;;;;10529682;28;20123;-76
2022/04/29 16:49:52;;;;;;;15.75;9.20;;;;;;;;;;10507730;28;20044;-74
2022/04/29 16:54:52;;;;;;;18.20;10.40;;;;;;;;;;10507430;28;20027;-75
2022/04/29 16:59:53;;;;;;;12.13;7.90;;;;;;;;;;10490467;28;20028;-73
2022/04/29 17:04:53;;;;;;;20.73;11.27;;;;;;;;;;10490411;28;20020;-73
2022/04/29 17:09:54;;;;;;;20.42;9.23;;;;;;;;;;10489821;28;20032;-71
2022/04/29 17:14:54;;;;;;;16.23;8.68;;;;;;;;;;10506769;28;20048;-74
2022/04/29 17:19:54;;;;;;;16.03;9.20;;;;;;;;;;10498499;28;20111;-76
2022/04/29 17:24:54;;;;;;;14.37;9.33;;;;;;;;;;10511285;28;20031;-72
2022/04/29 17:29:55;;;;;;;17.45;9.52;;;;;;;;;;10508047;28;20032;-71
2022/04/29 17:34:55;;;;;;;21.17;9.53;;;;;;;;;;10518084;28;20147;-75
2022/04/29 17:45:15;;;;;;;23.50;9.00;;;;;;;;;;10514856;28;20028;-74
2022/04/29 17:50:15;;;;;;;16.67;8.90;;;;;;;;;;10538357;28;20040;-74
2022/04/29 17:55:16;;;;;;;16.48;8.98;;;;;;;;;;10531213;28;20035;-75
2022/04/29 18:00:17;;;;;;;13.90;8.68;;;;;;;;;;10531377;28;20484;-77
2022/04/29 18:05:18;;;;;;;15.65;9.43;;;;;;;;;;10529428;28;20028;-69
2022/04/29 18:10:18;;;;;;;18.13;10.50;;;;;;;;;;10534933;28;20025;-74
2022/04/29 18:15:20;;;;;;;18.35;10.60;;;;;;;;;;10530751;28;20280;-73
2022/04/29 18:20:20;;;;;;;28.15;13.30;;;;;;;;;;10540001;28;20039;-74
2022/04/29 18:25:20;;;;;;;27.10;11.10;;;;;;;;;;10533807;28;20035;-76
2022/04/29 18:30:21;;;;;;;22.13;11.20;;;;;;;;;;10529838;28;20032;-70
2022/04/29 18:35:21;;;;;;;22.50;11.85;;;;;;;;;;10531599;28;20510;-72
2022/04/29 18:40:22;;;;;;;18.57;10.83;;;;;;;;;;10548983;28;20039;-76
2022/04/29 18:45:22;;;;;;;33.15;15.77;;;;;;;;;;10527464;28;20051;-74
2022/04/29 18:50:22;;;;;;;22.75;11.82;;;;;;;;;;10537877;28;20112;-72
2022/04/29 18:55:23;;;;;;;26.97;12.93;;;;;;;;;;10520718;28;20045;-71
2022/04/29 19:00:25;;;;;;;26.83;13.60;;;;;;;;;;10533150;28;20062;-72
2022/04/29 19:05:25;;;;;;;22.35;11.98;;;;;;;;;;10549674;28;20285;-77
2022/04/29 19:10:25;;;;;;;19.75;11.65;;;;;;;;;;10529464;28;20027;-73
2022/04/29 19:15:26;;;;;;;22.13;11.97;;;;;;;;;;10534903;28;20480;-73
2022/04/29 19:20:26;;;;;;;22.13;11.88;;;;;;;;;;10527595;28;20513;-74
2022/04/29 19:25:27;;;;;;;16.60;10.38;;;;;;;;;;10540162;28;20476;-71
2022/04/29 19:30:28;;;;;;;18.38;10.82;;;;;;;;;;10529583;28;20031;-72
2022/04/29 19:35:28;;;;;;;20.33;11.10;;;;;;;;;;10531675;28;20039;-73
2022/04/29 19:40:28;;;;;;;20.13;10.93;;;;;;;;;;10540643;28;20701;-73
2022/04/29 19:45:30;;;;;;;21.90;10.55;;;;;;;;;;10538279;28;20161;-71
2022/04/29 19:50:30;;;;;;;18.92;10.73;;;;;;;;;;10474385;28;20085;-73
2022/04/29 19:55:31;;;;;;;22.60;10.88;;;;;;;;;;10484414;28;20077;-73
2022/04/29 20:00:31;;;;;;;21.10;10.45;;;;;;;;;;10467856;28;20090;-71
2022/04/29 20:05:31;;;;;;;18.92;10.25;;;;;;;;;;10484742;28;20031;-74
2022/04/29 20:10:32;;;;;;;18.85;10.75;;;;;;;;;;10485881;28;20406;-73
2022/04/29 20:15:33;;;;;;;20.60;11.07;;;;;;;;;;10485512;28;20503;-73
2022/04/29 20:20:34;;;;;;;21.05;10.60;;;;;;;;;;10491396;28;20020;-73
2022/04/29 20:25:35;;;;;;;18.48;11.68;;;;;;;;;;10475585;28;20024;-71
2022/04/29 20:30:35;;;;;;;25.55;11.82;;;;;;;;;;10502117;28;20493;-70
2022/04/29 20:35:36;;;;;;;20.23;11.80;;;;;;;;;;10492496;28;20024;-73
2022/04/29 20:45:55;;;;;;;22.90;12.13;;;;;;;;;;10492992;28;20044;-72
2022/04/29 20:50:55;;;;;;;28.87;12.40;;;;;;;;;;10491119;28;20021;-75
2022/04/29 20:55:56;;;;;;;20.15;11.23;;;;;;;;;;10491007;28;20111;-72
2022/04/29 21:00:57;;;;;;;18.57;11.13;;;;;;;;;;10457788;28;20051;-73
2022/04/29 21:05:57;;;;;;;19.58;11.27;;;;;;;;;;10490445;28;20090;-72
2022/04/29 21:10:58;;;;;;;18.17;10.65;;;;;;;;;;10490820;28;20031;-73
2022/04/29 21:15:58;;;;;;;23.23;11.45;;;;;;;;;;10473837;28;20032;-75
2022/04/29 21:20:58;;;;;;;19.77;10.90;;;;;;;;;;10491414;28;20024;-72
2022/04/29 21:25:58;;;;;;;21.85;11.80;;;;;;;;;;10491081;28;20055;-70
2022/04/29 21:31:02;;;;;;;22.53;12.07;;;;;;;;;;10473001;28;20097;-71
2022/04/29 21:36:02;;;;;;;18.40;10.43;;;;;;;;;;10489726;28;20033;-72
2022/04/29 21:41:02;;;;;;;15.95;9.88;;;;;;;;;;10489813;28;20025;-76
2022/04/29 21:46:03;;;;;;;18.73;11.25;;;;;;;;;;10488612;28;20047;-72
2022/04/29 21:51:03;;;;;;;17.83;10.27;;;;;;;;;;10504516;28;20441;-71
2022/04/29 21:56:04;;;;;;;22.20;11.30;;;;;;;;;;10472431;28;20032;-72
2022/04/29 22:01:11;;;;;;;19.52;10.32;;;;;;;;;;10489960;28;20527;-75
2022/04/29 22:06:12;;;;;;;17.53;10.00;;;;;;;;;;10510521;28;20028;-72
2022/04/29 22:11:13;;;;;;;16.55;9.68;;;;;;;;;;10513392;28;20557;-72
2022/04/29 22:16:13;;;;;;;18.95;9.85;;;;;;;;;;10529411;28;20054;-72
2022/04/29 22:21:13;;;;;;;18.67;10.38;;;;;;;;;;10512603;28;20407;-75
2022/04/29 22:26:14;;;;;;;20.70;12.30;;;;;;;;;;10512187;28;20162;-74
2022/04/29 22:31:14;;;;;;;21.88;11.73;;;;;;;;;;10512294;28;20403;-71
2022/04/29 22:36:15;;;;;;;16.45;10.23;;;;;;;;;;10529979;28;20028;-72
2022/04/29 22:41:15;;;;;;;24.77;11.27;;;;;;;;;;10527548;28;20024;-72
2022/04/29 22:46:15;;;;;;;21.77;12.05;;;;;;;;;;10511504;28;20282;-72
2022/04/29 22:51:16;;;;;;;22.60;11.40;;;;;;;;;;10529874;28;20039;-75
2022/04/29 22:56:16;;;;;;;16.98;10.10;;;;;;;;;;10529216;28;20085;-76
2022/04/29 23:01:16;;;;;;;19.80;11.00;;;;;;;;;;10528589;28;20031;-73
2022/04/29 23:06:17;;;;;;;19.40;11.32;;;;;;;;;;10511236;28;20032;-72
2022/04/29 23:11:17;;;;;;;18.85;12.35;;;;;;;;;;10527454;28;20476;-72
2022/04/29 23:16:17;;;;;;;23.40;10.73;;;;;;;;;;10528334;28;20522;-75
2022/04/29 23:21:17;;;;;;;22.27;10.80;;;;;;;;;;10528645;28;20040;-73
2022/04/29 23:26:18;;;;;;;23.37;11.57;;;;;;;;;;10526830;28;20020;-74
2022/04/29 23:31:18;;;;;;;17.17;10.05;;;;;;;;;;10527127;28;20016;-73
2022/04/29 23:36:18;;;;;;;18.10;10.33;;;;;;;;;;10528216;28;20110;-72
2022/04/29 23:41:19;;;;;;;20.00;11.63;;;;;;;;;;10526949;28;20065;-72
2022/04/29 23:46:19;;;;;;;19.17;10.82;;;;;;;;;;10527756;28;20044;-74
2022/04/29 23:51:19;;;;;;;20.10;11.10;;;;;;;;;;10509764;28;20016;-73
2022/04/29 23:56:19;;;;;;;22.70;12.73;;;;;;;;;;10510188;28;20935;-73
